sensor_id;sensor_type;location;lat;lon;timestamp;pressure;altitude;pressure_sealevel;temperature;humidity
56074;BME280;41950;55.840;37.442;2023-04-29T00:00:22;99356.53;;;4.32;86.19
56074;BME280;41950;55.840;37.442;2023-04-29T00:02:48;99329.97;;;4.12;86.01
56074;BME280;41950;55.840;37.442;2023-04-29T00:05:14;99379.72;;;4.46;86.20
56074;BME280;41950;55.840;37.442;2023-04-29T00:07:39;99294.78;;;3.87;86.26
56074;BME280;41950;55.840;37.442;2023-04-29T00:10:06;99380.50;;;4.34;86.65
56074;BME280;41950;55.840;37.442;2023-04-29T00:12:32;99294.72;;;3.76;85.79
56074;BME280;41950;55.840;37.442;2023-04-29T00:14:59;99168.75;;;3.03;86.18
56074;BME280;41950;55.840;37.442;2023-04-29T00:17:32;99431.13;;;4.55;86.50
56074;BME280;41950;55.840;37.442;2023-04-29T00:19:58;99299.03;;;3.83;86.62
56074;BME280;41950;55.840;37.442;2023-04-29T00:22:23;99247.66;;;3.68;86.13
56074;BME280;41950;55.840;37.442;2023-04-29T00:24:49;99437.19;;;4.76;86.33
56074;BME280;41950;55.840;37.442;2023-04-29T00:27:15;99251.91;;;3.58;86.11
56074;BME280;41950;55.840;37.442;2023-04-29T00:29:42;99321.34;;;3.96;85.58
56074;BME280;41950;55.840;37.442;2023-04-29T00:32:08;99311.84;;;3.83;85.61
56074;BME280;41950;55.840;37.442;2023-04-29T00:34:34;99287.00;;;3.73;86.23
56074;BME280;41950;55.840;37.442;2023-04-29T00:37:00;99251.06;;;3.70;86.16
56074;BME280;41950;55.840;37.442;2023-04-29T00:39:26;99305.06;;;3.87;85.99
56074;BME280;41950;55.840;37.442;2023-04-29T00:41:52;99353.09;;;4.32;86.28
56074;BME280;41950;55.840;37.442;2023-04-29T00:44:18;99153.41;;;3.17;85.97
56074;BME280;41950;55.840;37.442;2023-04-29T00:46:43;99293.94;;;3.89;86.44
56074;BME280;41950;55.840;37.442;2023-04-29T00:49:10;99447.47;;;4.76;86.79
56074;BME280;41950;55.840;37.442;2023-04-29T00:51:37;99277.69;;;3.93;87.07
56074;BME280;41950;55.840;37.442;2023-04-29T00:54:05;99346.25;;;4.31;86.79
56074;BME280;41950;55.840;37.442;2023-04-29T00:56:33;99414.91;;;4.81;86.33
56074;BME280;41950;55.840;37.442;2023-04-29T00:59:01;99441.47;;;4.78;85.85
56074;BME280;41950;55.840;37.442;2023-04-29T01:01:28;99379.69;;;4.39;86.13
56074;BME280;41950;55.840;37.442;2023-04-29T01:03:56;99311.97;;;4.14;86.16
56074;BME280;41950;55.840;37.442;2023-04-29T01:06:32;99393.44;;;4.63;86.30
56074;BME280;41950;55.840;37.442;2023-04-29T01:17:38;99389.97;;;4.42;85.49
56074;BME280;41950;55.840;37.442;2023-04-29T01:20:07;99263.91;;;3.68;85.72
56074;BME280;41950;55.840;37.442;2023-04-29T01:22:33;99253.56;;;3.50;85.81
56074;BME280;41950;55.840;37.442;2023-04-29T01:25:00;99157.66;;;3.07;85.89
56074;BME280;41950;55.840;37.442;2023-04-29T01:27:41;99270.78;;;3.82;86.02
56074;BME280;41950;55.840;37.442;2023-04-29T01:30:20;99456.88;;;4.66;85.36
56074;BME280;41950;55.840;37.442;2023-04-29T01:33:16;99437.97;;;4.59;85.74
56074;BME280;41950;55.840;37.442;2023-04-29T01:41:42;99374.53;;;4.34;85.28
56074;BME280;41950;55.840;37.442;2023-04-29T01:44:15;99371.09;;;4.38;85.84
56074;BME280;41950;55.840;37.442;2023-04-29T01:46:50;99416.56;;;4.63;86.20
56074;BME280;41950;55.840;37.442;2023-04-29T01:49:27;99412.28;;;4.62;85.78
56074;BME280;41950;55.840;37.442;2023-04-29T01:51:54;99357.38;;;4.16;86.02
56074;BME280;41950;55.840;37.442;2023-04-29T01:54:20;99415.69;;;4.52;86.27
56074;BME280;41950;55.840;37.442;2023-04-29T01:56:49;99322.16;;;3.86;86.54
56074;BME280;41950;55.840;37.442;2023-04-29T01:59:16;99288.72;;;3.66;85.94
56074;BME280;41950;55.840;37.442;2023-04-29T02:01:42;99418.25;;;4.46;86.36
56074;BME280;41950;55.840;37.442;2023-04-29T02:04:08;99421.69;;;4.51;86.85
56074;BME280;41950;55.840;37.442;2023-04-29T02:06:33;99236.44;;;3.43;86.78
56074;BME280;41950;55.840;37.442;2023-04-29T02:08:59;99368.50;;;4.15;86.84
56074;BME280;41950;55.840;37.442;2023-04-29T02:11:25;99389.94;;;4.34;86.49
56074;BME280;41950;55.840;37.442;2023-04-29T02:13:54;99363.31;;;4.09;86.26
56074;BME280;41950;55.840;37.442;2023-04-29T02:16:21;99382.19;;;4.16;86.85
56074;BME280;41950;55.840;37.442;2023-04-29T02:18:46;99354.72;;;3.99;86.68
56074;BME280;41950;55.840;37.442;2023-04-29T02:21:12;99403.69;;;4.41;87.01
56074;BME280;41950;55.840;37.442;2023-04-29T02:23:38;99445.69;;;4.61;86.76
56074;BME280;41950;55.840;37.442;2023-04-29T02:26:03;99393.34;;;4.28;86.53
56074;BME280;41950;55.840;37.442;2023-04-29T02:28:34;99383.03;;;4.13;86.66
56074;BME280;41950;55.840;37.442;2023-04-29T02:31:00;99385.63;;;4.18;86.71
56074;BME280;41950;55.840;37.442;2023-04-29T02:33:26;99425.94;;;4.39;86.56
56074;BME280;41950;55.840;37.442;2023-04-29T02:35:51;99304.94;;;3.64;86.34
56074;BME280;41950;55.840;37.442;2023-04-29T02:38:17;99413.06;;;4.34;86.63
56074;BME280;41950;55.840;37.442;2023-04-29T02:40:44;99400.19;;;4.29;86.53
56074;BME280;41950;55.840;37.442;2023-04-29T02:43:11;99437.09;;;4.48;86.57
56074;BME280;41950;55.840;37.442;2023-04-29T02:45:37;99376.16;;;4.11;86.43
56074;BME280;41950;55.840;37.442;2023-04-29T02:48:04;99424.19;;;4.30;86.43
56074;BME280;41950;55.840;37.442;2023-04-29T02:50:30;99431.03;;;4.26;86.42
56074;BME280;41950;55.840;37.442;2023-04-29T02:52:57;99443.88;;;4.28;86.41
56074;BME280;41950;55.840;37.442;2023-04-29T02:55:23;99458.50;;;4.41;86.42
56074;BME280;41950;55.840;37.442;2023-04-29T02:57:48;99455.88;;;4.35;86.06
56074;BME280;41950;55.840;37.442;2023-04-29T03:00:14;99478.97;;;4.29;85.44
56074;BME280;41950;55.840;37.442;2023-04-29T03:02:40;99466.94;;;4.16;86.46
56074;BME280;41950;55.840;37.442;2023-04-29T03:05:06;99470.34;;;4.12;86.81
56074;BME280;41950;55.840;37.442;2023-04-29T03:07:32;99421.34;;;3.73;86.96
56074;BME280;41950;55.840;37.442;2023-04-29T03:09:58;99462.56;;;3.96;87.27
56074;BME280;41950;55.840;37.442;2023-04-29T03:12:23;99453.16;;;3.98;87.25
56074;BME280;41950;55.840;37.442;2023-04-29T03:14:49;99472.03;;;4.10;86.97
56074;BME280;41950;55.840;37.442;2023-04-29T03:17:16;99473.78;;;4.12;87.14
56074;BME280;41950;55.840;37.442;2023-04-29T03:19:45;99507.22;;;4.27;87.10
56074;BME280;41950;55.840;37.442;2023-04-29T03:22:14;99489.97;;;4.05;86.14
56074;BME280;41950;55.840;37.442;2023-04-29T03:24:40;99399.72;;;3.38;85.82
56074;BME280;41950;55.840;37.442;2023-04-29T03:27:06;99477.81;;;3.77;85.77
56074;BME280;41950;55.840;37.442;2023-04-29T03:29:34;99497.50;;;3.76;85.28
56074;BME280;41950;55.840;37.442;2023-04-29T03:32:00;99366.69;;;2.70;85.08
56074;BME280;41950;55.840;37.442;2023-04-29T03:34:27;99408.88;;;3.05;85.55
56074;BME280;41950;55.840;37.442;2023-04-29T03:36:53;99459.53;;;3.32;85.75
56074;BME280;41950;55.840;37.442;2023-04-29T03:39:19;99481.84;;;3.42;85.70
56074;BME280;41950;55.840;37.442;2023-04-29T03:41:46;99408.06;;;3.08;86.04
56074;BME280;41950;55.840;37.442;2023-04-29T03:44:12;99564.38;;;3.91;86.03
56074;BME280;41950;55.840;37.442;2023-04-29T03:46:38;99408.94;;;3.13;86.10
56074;BME280;41950;55.840;37.442;2023-04-29T03:49:03;99552.44;;;4.02;86.08
56074;BME280;41950;55.840;37.442;2023-04-29T03:51:29;99505.22;;;3.82;85.88
56074;BME280;41950;55.840;37.442;2023-04-29T03:53:56;99404.81;;;3.30;85.88
56074;BME280;41950;55.840;37.442;2023-04-29T03:56:22;99531.09;;;4.10;85.65
56074;BME280;41950;55.840;37.442;2023-04-29T03:58:52;99505.31;;;3.90;85.77
56074;BME280;41950;55.840;37.442;2023-04-29T04:01:18;99433.94;;;3.40;85.56
56074;BME280;41950;55.840;37.442;2023-04-29T04:03:44;99574.84;;;4.23;85.67
56074;BME280;41950;55.840;37.442;2023-04-29T04:06:10;99570.59;;;4.27;85.00
56074;BME280;41950;55.840;37.442;2023-04-29T04:08:36;99417.56;;;3.23;84.52
56074;BME280;41950;55.840;37.442;2023-04-29T04:11:02;99458.75;;;3.42;84.51
56074;BME280;41950;55.840;37.442;2023-04-29T04:13:29;99483.78;;;3.71;84.82
56074;BME280;41950;55.840;37.442;2023-04-29T04:15:54;99517.34;;;4.01;84.66
56074;BME280;41950;55.840;37.442;2023-04-29T04:18:20;99374.84;;;3.26;84.40
56074;BME280;41950;55.840;37.442;2023-04-29T04:20:46;99581.00;;;4.44;84.51
56074;BME280;41950;55.840;37.442;2023-04-29T04:23:12;99581.00;;;4.45;84.16
56074;BME280;41950;55.840;37.442;2023-04-29T04:25:44;99442.66;;;3.59;84.27
56074;BME280;41950;55.840;37.442;2023-04-29T04:28:10;99565.56;;;4.45;84.32
56074;BME280;41950;55.840;37.442;2023-04-29T04:30:36;99427.28;;;3.65;84.14
56074;BME280;41950;55.840;37.442;2023-04-29T04:33:02;99490.03;;;4.11;83.64
56074;BME280;41950;55.840;37.442;2023-04-29T04:35:28;99390.34;;;3.43;83.04
56074;BME280;41950;55.840;37.442;2023-04-29T04:37:54;99497.66;;;4.00;83.23
56074;BME280;41950;55.840;37.442;2023-04-29T04:40:19;99541.50;;;4.32;83.60
56074;BME280;41950;55.840;37.442;2023-04-29T04:42:46;99483.16;;;4.09;83.50
56074;BME280;41950;55.840;37.442;2023-04-29T04:45:12;99368.06;;;3.31;83.25
56074;BME280;41950;55.840;37.442;2023-04-29T04:47:39;99557.97;;;4.67;83.49
56074;BME280;41950;55.840;37.442;2023-04-29T04:50:06;99589.72;;;4.79;83.40
56074;BME280;41950;55.840;37.442;2023-04-29T04:52:33;99298.66;;;3.10;83.30
56074;BME280;41950;55.840;37.442;2023-04-29T04:54:59;99437.72;;;3.94;83.06
56074;BME280;41950;55.840;37.442;2023-04-29T04:57:25;99484.91;;;4.16;82.79
56074;BME280;41950;55.840;37.442;2023-04-29T04:59:51;99512.47;;;4.46;82.67
56074;BME280;41950;55.840;37.442;2023-04-29T05:02:17;99576.09;;;4.94;82.51
56074;BME280;41950;55.840;37.442;2023-04-29T05:04:42;99551.16;;;4.79;82.29
56074;BME280;41950;55.840;37.442;2023-04-29T05:07:09;99512.50;;;4.52;81.69
56074;BME280;41950;55.840;37.442;2023-04-29T05:09:35;99579.47;;;4.87;81.19
56074;BME280;41950;55.840;37.442;2023-04-29T05:12:01;99582.88;;;4.83;80.97
56074;BME280;41950;55.840;37.442;2023-04-29T05:14:30;99521.91;;;4.51;80.63
56074;BME280;41950;55.840;37.442;2023-04-29T05:16:59;99543.38;;;4.65;81.61
56074;BME280;41950;55.840;37.442;2023-04-29T05:19:24;99539.06;;;4.55;81.19
56074;BME280;41950;55.840;37.442;2023-04-29T05:21:51;99497.91;;;4.40;81.03
56074;BME280;41950;55.840;37.442;2023-04-29T05:24:16;99570.94;;;4.95;81.25
56074;BME280;41950;55.840;37.442;2023-04-29T05:26:42;99495.34;;;4.48;80.72
56074;BME280;41950;55.840;37.442;2023-04-29T05:29:11;99470.38;;;4.18;80.50
56074;BME280;41950;55.840;37.442;2023-04-29T05:31:37;99490.19;;;4.40;80.85
56074;BME280;41950;55.840;37.442;2023-04-29T05:34:06;99564.88;;;4.84;80.59
56074;BME280;41950;55.840;37.442;2023-04-29T05:36:32;99600.09;;;4.97;80.59
56074;BME280;41950;55.840;37.442;2023-04-29T05:38:57;99523.66;;;4.63;81.06
56074;BME280;41950;55.840;37.442;2023-04-29T05:41:23;99504.00;;;4.67;80.72
56074;BME280;41950;55.840;37.442;2023-04-29T05:43:50;99473.06;;;4.44;80.34
56074;BME280;41950;55.840;37.442;2023-04-29T05:46:15;99576.16;;;5.20;80.21
56074;BME280;41950;55.840;37.442;2023-04-29T05:48:41;99551.25;;;5.08;79.68
56074;BME280;41950;55.840;37.442;2023-04-29T05:51:07;99540.13;;;5.11;79.47
56074;BME280;41950;55.840;37.442;2023-04-29T05:53:33;99608.84;;;5.59;79.25
56074;BME280;41950;55.840;37.442;2023-04-29T05:56:00;99535.88;;;5.20;78.56
56074;BME280;41950;55.840;37.442;2023-04-29T05:58:29;99603.69;;;5.62;78.31
56074;BME280;41950;55.840;37.442;2023-04-29T06:00:55;99584.78;;;5.42;78.34
56074;BME280;41950;55.840;37.442;2023-04-29T06:03:21;99560.75;;;5.35;78.73
56074;BME280;41950;55.840;37.442;2023-04-29T06:05:46;99584.81;;;5.58;78.36
56074;BME280;41950;55.840;37.442;2023-04-29T06:08:12;99625.19;;;5.85;77.81
56074;BME280;41950;55.840;37.442;2023-04-29T06:10:38;99569.38;;;5.51;77.33
56074;BME280;41950;55.840;37.442;2023-04-29T06:13:04;99556.50;;;5.48;77.84
56074;BME280;41950;55.840;37.442;2023-04-29T06:15:30;99480.94;;;5.00;77.03
56074;BME280;41950;55.840;37.442;2023-04-29T06:17:56;99369.41;;;4.40;76.52
56074;BME280;41950;55.840;37.442;2023-04-29T06:20:22;99497.25;;;5.14;76.68
56074;BME280;41950;55.840;37.442;2023-04-29T06:22:48;99491.28;;;5.24;76.78
56074;BME280;41950;55.840;37.442;2023-04-29T06:25:14;99547.94;;;5.90;76.47
56074;BME280;41950;55.840;37.442;2023-04-29T06:27:40;99633.78;;;6.61;76.08
56074;BME280;41950;55.840;37.442;2023-04-29T06:30:06;99428.63;;;5.64;75.64
56074;BME280;41950;55.840;37.442;2023-04-29T06:32:32;99638.78;;;7.06;74.95
56074;BME280;41950;55.840;37.442;2023-04-29T06:34:58;99446.63;;;5.93;74.13
56074;BME280;41950;55.840;37.442;2023-04-29T06:37:24;99503.19;;;6.38;74.19
56074;BME280;41950;55.840;37.442;2023-04-29T06:39:50;99595.00;;;6.88;72.49
56074;BME280;41950;55.840;37.442;2023-04-29T06:42:25;99369.44;;;5.54;72.26
56074;BME280;41950;55.840;37.442;2023-04-29T06:45:06;99435.41;;;6.16;71.90
56074;BME280;41950;55.840;37.442;2023-04-29T06:47:38;99573.41;;;7.07;70.77
56074;BME280;41950;55.840;37.442;2023-04-29T06:50:05;99444.81;;;6.31;71.05
56074;BME280;41950;55.840;37.442;2023-04-29T06:52:33;99638.50;;;7.67;71.34
56074;BME280;41950;55.840;37.442;2023-04-29T06:54:59;99447.31;;;6.48;70.14
56074;BME280;41950;55.840;37.442;2023-04-29T06:57:25;99491.03;;;6.69;70.78
56074;BME280;41950;55.840;37.442;2023-04-29T06:59:51;99497.97;;;6.55;69.92
56074;BME280;41950;55.840;37.442;2023-04-29T07:02:17;99667.91;;;7.36;70.42
56074;BME280;41950;55.840;37.442;2023-04-29T07:04:43;99460.34;;;6.07;69.84
56074;BME280;41950;55.840;37.442;2023-04-29T07:07:08;99426.03;;;5.77;70.80
56074;BME280;41950;55.840;37.442;2023-04-29T07:09:34;99491.97;;;6.48;70.71
56074;BME280;41950;55.840;37.442;2023-04-29T07:12:00;99461.03;;;6.50;70.03
56074;BME280;41950;55.840;37.442;2023-04-29T07:14:29;99521.81;;;7.04;69.61
56074;BME280;41950;55.840;37.442;2023-04-29T07:16:55;99573.19;;;7.47;68.40
56074;BME280;41950;55.840;37.442;2023-04-29T07:19:21;99526.75;;;7.38;68.22
56074;BME280;41950;55.840;37.442;2023-04-29T07:21:46;99426.47;;;6.83;68.26
56074;BME280;41950;55.840;37.442;2023-04-29T07:24:12;99399.91;;;6.72;67.16
56074;BME280;41950;55.840;37.442;2023-04-29T07:26:42;99413.53;;;6.91;67.30
56074;BME280;41950;55.840;37.442;2023-04-29T07:29:09;99562.66;;;7.74;67.45
56074;BME280;41950;55.840;37.442;2023-04-29T07:31:37;99523.22;;;7.54;67.28
56074;BME280;41950;55.840;37.442;2023-04-29T07:34:03;99555.81;;;7.70;66.20
56074;BME280;41950;55.840;37.442;2023-04-29T07:36:29;99603.13;;;7.77;66.42
56074;BME280;41950;55.840;37.442;2023-04-29T07:38:55;99537.25;;;7.13;67.12
56074;BME280;41950;55.840;37.442;2023-04-29T07:41:24;99511.38;;;7.26;66.76
56074;BME280;41950;55.840;37.442;2023-04-29T07:43:49;99522.44;;;7.43;67.40
56074;BME280;41950;55.840;37.442;2023-04-29T07:46:15;99643.31;;;8.13;66.89
56074;BME280;41950;55.840;37.442;2023-04-29T07:48:45;99658.69;;;8.31;66.08
56074;BME280;41950;55.840;37.442;2023-04-29T07:51:14;99650.84;;;8.45;65.21
56074;BME280;41950;55.840;37.442;2023-04-29T07:53:42;99633.47;;;8.59;65.31
56074;BME280;41950;55.840;37.442;2023-04-29T07:56:08;99628.34;;;8.55;64.33
56074;BME280;41950;55.840;37.442;2023-04-29T07:58:34;99508.25;;;7.91;63.44
56074;BME280;41950;55.840;37.442;2023-04-29T08:01:10;99679.44;;;9.16;62.81
56074;BME280;41950;55.840;37.442;2023-04-29T08:03:36;99718.09;;;9.33;61.94
56074;BME280;41950;55.840;37.442;2023-04-29T08:06:03;99710.25;;;9.39;61.97
56074;BME280;41950;55.840;37.442;2023-04-29T08:08:30;99669.91;;;9.18;61.56
56074;BME280;41950;55.840;37.442;2023-04-29T08:11:01;99732.09;;;9.15;60.76
56074;BME280;41950;55.840;37.442;2023-04-29T08:13:27;99630.03;;;8.59;62.01
56074;BME280;41950;55.840;37.442;2023-04-29T08:15:53;99731.94;;;9.28;61.35
56074;BME280;41950;55.840;37.442;2023-04-29T08:18:19;99598.38;;;8.29;61.79
56074;BME280;41950;55.840;37.442;2023-04-29T08:20:46;99728.00;;;8.94;62.43
56074;BME280;41950;55.840;37.442;2023-04-29T08:23:14;99579.53;;;8.15;62.73
56074;BME280;41950;55.840;37.442;2023-04-29T08:25:41;99658.31;;;8.77;61.97
56074;BME280;41950;55.840;37.442;2023-04-29T08:28:07;99681.25;;;9.09;60.88
56074;BME280;41950;55.840;37.442;2023-04-29T08:30:37;99630.38;;;9.07;58.82
56074;BME280;41950;55.840;37.442;2023-04-29T08:33:02;99693.28;;;9.81;57.98
56074;BME280;41950;55.840;37.442;2023-04-29T08:35:28;99716.66;;;10.38;58.06
56074;BME280;41950;55.840;37.442;2023-04-29T08:37:54;99731.25;;;10.46;55.11
56074;BME280;41950;55.840;37.442;2023-04-29T08:40:19;99654.34;;;9.87;55.58
56074;BME280;41950;55.840;37.442;2023-04-29T08:42:47;99708.75;;;9.85;54.75
56074;BME280;41950;55.840;37.442;2023-04-29T08:45:16;99672.59;;;9.10;55.50
56074;BME280;41950;55.840;37.442;2023-04-29T08:47:45;99732.22;;;9.04;57.51
56074;BME280;41950;55.840;37.442;2023-04-29T08:50:10;99713.59;;;8.67;58.83
56074;BME280;41950;55.840;37.442;2023-04-29T08:52:37;99737.56;;;8.87;59.70
56074;BME280;41950;55.840;37.442;2023-04-29T08:55:03;99738.22;;;9.09;59.22
56074;BME280;41950;55.840;37.442;2023-04-29T08:57:35;99690.75;;;9.07;58.76
56074;BME280;41950;55.840;37.442;2023-04-29T09:00:09;99646.78;;;9.06;57.54
56074;BME280;41950;55.840;37.442;2023-04-29T09:02:49;99748.47;;;9.90;51.77
56074;BME280;41950;55.840;37.442;2023-04-29T09:05:15;99611.56;;;8.89;52.28
56074;BME280;41950;55.840;37.442;2023-04-29T09:07:42;99722.63;;;9.83;52.35
56074;BME280;41950;55.840;37.442;2023-04-29T09:10:09;99559.38;;;8.54;53.82
56074;BME280;41950;55.840;37.442;2023-04-29T09:12:36;99599.53;;;8.85;52.68
56074;BME280;41950;55.840;37.442;2023-04-29T09:15:02;99720.88;;;9.86;52.62
56074;BME280;41950;55.840;37.442;2023-04-29T09:22:55;99646.81;;;10.27;51.69
56074;BME280;41950;55.840;37.442;2023-04-29T09:25:23;99594.19;;;10.20;49.41
56074;BME280;41950;55.840;37.442;2023-04-29T09:27:49;99747.63;;;11.01;48.19
56074;BME280;41950;55.840;37.442;2023-04-29T09:30:15;99768.78;;;10.78;48.54
56074;BME280;41950;55.840;37.442;2023-04-29T09:32:42;99679.69;;;10.25;47.19
56074;BME280;41950;55.840;37.442;2023-04-29T09:35:24;99678.47;;;9.90;46.83
56074;BME280;41950;55.840;37.442;2023-04-29T09:38:08;99650.50;;;9.51;48.06
56074;BME280;41950;55.840;37.442;2023-04-29T09:40:34;99574.22;;;9.10;48.02
56074;BME280;41950;55.840;37.442;2023-04-29T09:43:00;99588.91;;;9.10;47.73
56074;BME280;41950;55.840;37.442;2023-04-29T09:45:34;99586.53;;;9.54;47.31
56074;BME280;41950;55.840;37.442;2023-04-29T09:48:04;99674.31;;;10.36;47.28
56074;BME280;41950;55.840;37.442;2023-04-29T09:50:34;99646.81;;;10.27;46.63
56074;BME280;41950;55.840;37.442;2023-04-29T09:53:05;99660.72;;;10.21;46.66
56074;BME280;41950;55.840;37.442;2023-04-29T09:56:00;99762.78;;;10.74;47.07
56074;BME280;41950;55.840;37.442;2023-04-29T09:58:34;99644.78;;;9.89;47.31
56074;BME280;41950;55.840;37.442;2023-04-29T10:01:09;99614.75;;;9.74;46.93
56074;BME280;41950;55.840;37.442;2023-04-29T10:03:37;99719.50;;;11.24;45.00
56074;BME280;41950;55.840;37.442;2023-04-29T10:06:05;99729.78;;;12.12;42.98
56074;BME280;41950;55.840;37.442;2023-04-29T10:08:32;99769.81;;;12.44;41.15
56074;BME280;41950;55.840;37.442;2023-04-29T10:11:05;99751.31;;;11.80;41.60
56074;BME280;41950;55.840;37.442;2023-04-29T10:13:34;99788.31;;;11.46;42.67
56074;BME280;41950;55.840;37.442;2023-04-29T10:18:54;99732.97;;;10.47;44.91
56074;BME280;41950;55.840;37.442;2023-04-29T10:21:27;99670.28;;;10.16;45.32
56074;BME280;41950;55.840;37.442;2023-04-29T10:24:01;99543.22;;;9.66;44.59
56074;BME280;41950;55.840;37.442;2023-04-29T10:26:30;99688.13;;;11.73;42.85
56074;BME280;41950;55.840;37.442;2023-04-29T10:28:57;99772.66;;;13.38;40.08
56074;BME280;41950;55.840;37.442;2023-04-29T10:31:25;99563.50;;;12.69;39.28
56074;BME280;41950;55.840;37.442;2023-04-29T10:33:55;99578.19;;;13.60;37.18
56074;BME280;41950;55.840;37.442;2023-04-29T10:36:27;99584.72;;;14.02;34.98
56074;BME280;41950;55.840;37.442;2023-04-29T10:39:04;99562.13;;;14.01;35.14
56074;BME280;41950;55.840;37.442;2023-04-29T10:41:42;99616.56;;;14.89;35.76
56074;BME280;41950;55.840;37.442;2023-04-29T10:44:14;99647.91;;;14.64;35.82
56074;BME280;41950;55.840;37.442;2023-04-29T10:46:40;99571.25;;;13.32;37.33
56074;BME280;41950;55.840;37.442;2023-04-29T10:49:06;99682.72;;;13.23;37.72
56074;BME280;41950;55.840;37.442;2023-04-29T10:51:42;99664.72;;;12.82;39.63
56074;BME280;41950;55.840;37.442;2023-04-29T10:54:13;99597.94;;;11.79;38.61
56074;BME280;41950;55.840;37.442;2023-04-29T10:56:41;99546.69;;;11.05;39.36
56074;BME280;41950;55.840;37.442;2023-04-29T10:59:12;99613.00;;;11.21;41.93
56074;BME280;41950;55.840;37.442;2023-04-29T11:01:49;99727.56;;;11.95;40.63
56074;BME280;41950;55.840;37.442;2023-04-29T11:04:17;99720.06;;;12.56;39.76
56074;BME280;41950;55.840;37.442;2023-04-29T11:06:45;99626.75;;;12.41;39.53
56074;BME280;41950;55.840;37.442;2023-04-29T11:09:28;99810.38;;;13.88;37.51
56074;BME280;41950;55.840;37.442;2023-04-29T11:14:35;99692.44;;;14.33;36.71
56074;BME280;41950;55.840;37.442;2023-04-29T11:17:05;99704.84;;;13.69;33.72
56074;BME280;41950;55.840;37.442;2023-04-29T11:19:34;99715.97;;;13.12;35.56
56074;BME280;41950;55.840;37.442;2023-04-29T11:24:55;99822.41;;;15.06;33.66
56074;BME280;41950;55.840;37.442;2023-04-29T11:27:24;99715.34;;;13.96;32.28
56074;BME280;41950;55.840;37.442;2023-04-29T11:29:54;99778.53;;;15.40;32.02
56074;BME280;41950;55.840;37.442;2023-04-29T11:32:27;99802.13;;;16.56;32.32
56074;BME280;41950;55.840;37.442;2023-04-29T11:34:53;99806.25;;;17.86;30.15
56074;BME280;41950;55.840;37.442;2023-04-29T11:37:25;99764.63;;;19.06;28.15
56074;BME280;41950;55.840;37.442;2023-04-29T11:39:57;99810.41;;;19.71;28.86
56074;BME280;41950;55.840;37.442;2023-04-29T11:42:24;99814.22;;;19.13;25.51
56074;BME280;41950;55.840;37.442;2023-04-29T11:44:51;99736.69;;;17.76;25.13
56074;BME280;41950;55.840;37.442;2023-04-29T11:47:18;99687.81;;;16.95;26.85
56074;BME280;41950;55.840;37.442;2023-04-29T11:49:43;99749.56;;;17.62;27.61
56074;BME280;41950;55.840;37.442;2023-04-29T11:52:09;99673.53;;;17.03;28.98
56074;BME280;41950;55.840;37.442;2023-04-29T11:54:36;99616.72;;;15.31;28.14
56074;BME280;41950;55.840;37.442;2023-04-29T11:57:01;99698.72;;;15.05;30.91
56074;BME280;41950;55.840;37.442;2023-04-29T11:59:32;99606.69;;;14.47;30.54
56074;BME280;41950;55.840;37.442;2023-04-29T12:01:58;99646.34;;;14.06;31.23
56074;BME280;41950;55.840;37.442;2023-04-29T12:04:25;99686.94;;;13.86;33.09
56074;BME280;41950;55.840;37.442;2023-04-29T12:06:51;99790.56;;;14.68;33.86
56074;BME280;41950;55.840;37.442;2023-04-29T12:09:20;99817.59;;;14.67;33.54
56074;BME280;41950;55.840;37.442;2023-04-29T12:11:54;99572.41;;;12.92;31.83
56074;BME280;41950;55.840;37.442;2023-04-29T12:14:22;99744.47;;;13.82;33.03
56074;BME280;41950;55.840;37.442;2023-04-29T12:16:48;99712.91;;;14.47;31.29
56074;BME280;41950;55.840;37.442;2023-04-29T12:19:14;99803.84;;;17.01;30.03
56074;BME280;41950;55.840;37.442;2023-04-29T12:21:47;99627.72;;;16.08;27.00
56074;BME280;41950;55.840;37.442;2023-04-29T12:24:16;99652.78;;;14.98;28.12
56074;BME280;41950;55.840;37.442;2023-04-29T12:26:44;99575.19;;;13.46;29.94
56074;BME280;41950;55.840;37.442;2023-04-29T12:29:10;99698.56;;;13.47;30.48
56074;BME280;41950;55.840;37.442;2023-04-29T12:31:35;99643.56;;;12.94;30.86
56074;BME280;41950;55.840;37.442;2023-04-29T12:34:04;99816.59;;;14.43;31.19
56074;BME280;41950;55.840;37.442;2023-04-29T12:36:32;99654.53;;;13.66;30.89
56074;BME280;41950;55.840;37.442;2023-04-29T12:38:59;99695.06;;;13.48;30.70
56074;BME280;41950;55.840;37.442;2023-04-29T12:41:56;99727.19;;;13.17;31.74
56074;BME280;41950;55.840;37.442;2023-04-29T12:44:23;99767.41;;;13.06;31.97
56074;BME280;41950;55.840;37.442;2023-04-29T12:46:49;99758.50;;;12.80;32.83
56074;BME280;41950;55.840;37.442;2023-04-29T12:49:17;99515.81;;;11.31;34.02
56074;BME280;41950;55.840;37.442;2023-04-29T12:51:43;99572.34;;;11.59;33.52
56074;BME280;41950;55.840;37.442;2023-04-29T12:54:09;99671.53;;;12.18;34.10
56074;BME280;41950;55.840;37.442;2023-04-29T12:56:37;99709.97;;;12.44;33.28
56074;BME280;41950;55.840;37.442;2023-04-29T12:59:06;99601.97;;;11.52;31.99
56074;BME280;41950;55.840;37.442;2023-04-29T13:01:37;99524.53;;;10.89;32.74
56074;BME280;41950;55.840;37.442;2023-04-29T13:04:04;99683.88;;;11.69;32.74
56074;BME280;41950;55.840;37.442;2023-04-29T13:06:33;99630.66;;;11.47;32.22
56074;BME280;41950;55.840;37.442;2023-04-29T13:09:06;99809.09;;;12.72;32.35
56074;BME280;41950;55.840;37.442;2023-04-29T13:11:38;99670.00;;;12.11;32.51
56074;BME280;41950;55.840;37.442;2023-04-29T13:14:07;99778.28;;;12.89;31.24
56074;BME280;41950;55.840;37.442;2023-04-29T13:16:40;99519.66;;;11.52;31.21
56074;BME280;41950;55.840;37.442;2023-04-29T13:19:06;99809.69;;;13.51;31.36
56074;BME280;41950;55.840;37.442;2023-04-29T13:21:32;99674.69;;;12.66;30.52
56074;BME280;41950;55.840;37.442;2023-04-29T13:23:57;99695.09;;;13.14;32.44
56074;BME280;41950;55.840;37.442;2023-04-29T13:26:23;99631.47;;;12.91;29.76
56074;BME280;41950;55.840;37.442;2023-04-29T13:28:50;99743.13;;;13.38;29.11